createdAt,value
2022-09-16T00:04:52.132Z,14.31
2022-09-16T00:19:05.288Z,14.28
2022-09-16T00:33:18.213Z,14.22
2022-09-16T00:47:31.229Z,14.18
2022-09-16T01:01:44.997Z,14.09
2022-09-16T01:15:57.791Z,14.04
2022-09-16T01:30:09.905Z,13.94
2022-09-16T01:44:22.345Z,13.8
2022-09-16T01:58:35.244Z,13.73
2022-09-16T02:12:47.795Z,13.68
2022-09-16T02:27:00.666Z,13.62
2022-09-16T02:41:14.544Z,13.57
2022-09-16T02:55:24.477Z,13.46
2022-09-16T03:09:36.632Z,13.19
2022-09-16T03:23:49.636Z,13.09
2022-09-16T03:38:01.856Z,13.07
2022-09-16T03:52:14.714Z,13.02
2022-09-16T04:06:27.014Z,13
2022-09-16T04:20:40.273Z,12.97
2022-09-16T04:34:54.743Z,12.93
2022-09-16T04:49:03.189Z,12.85
2022-09-16T05:03:15.768Z,12.74
2022-09-16T05:17:49.691Z,12.84
2022-09-16T05:31:40.000Z,12.93
2022-09-16T05:45:53.571Z,13.06
2022-09-16T06:00:07.534Z,13.25
2022-09-16T06:14:19.077Z,13.53
2022-09-16T06:17:31.910Z,13.53
2022-09-16T06:28:33.437Z,13.68
2022-09-16T06:36:44.945Z,13.82
2022-09-16T06:46:17.912Z,13.95
2022-09-16T06:55:52.443Z,14.14
2022-09-16T07:05:24.889Z,14.28
2022-09-16T07:14:59.701Z,14.44
2022-09-16T07:24:34.822Z,14.53
2022-09-16T07:25:37.389Z,14.56
2022-09-16T07:35:12.889Z,14.65
2022-09-16T07:36:15.211Z,14.70
2022-09-16T07:37:17.662Z,14.76
2022-09-16T07:38:21.796Z,14.80
2022-09-16T07:39:24.110Z,14.84
2022-09-16T07:40:29.584Z,14.91
2022-09-16T07:41:29.041Z,14.93
2022-09-16T07:42:31.510Z,14.96
2022-09-16T07:52:04.236Z,14.81
2022-09-16T07:53:06.741Z,14.83
2022-09-16T07:55:13.226Z,14.86
2022-09-16T07:56:15.488Z,14.91
2022-09-16T07:57:18.016Z,14.93
2022-09-16T07:58:20.474Z,14.96
2022-09-16T08:00:27.009Z,14.99
2022-09-16T08:01:29.467Z,15.01
2022-09-16T08:02:31.847Z,15.02
2022-09-16T08:03:34.263Z,15.04
2022-09-16T08:04:36.787Z,15.07
2022-09-16T08:05:39.240Z,15.10
2022-09-16T08:06:43.308Z,15.13
2022-09-16T08:07:45.748Z,15.16
2022-09-16T08:08:48.156Z,15.18
2022-09-16T08:09:51.083Z,15.20
2022-09-16T08:10:54.607Z,15.25
2022-09-16T08:20:27.347Z,15.18
2022-09-16T08:21:29.692Z,15.22
2022-09-16T08:22:32.155Z,15.23
2022-09-16T08:23:36.230Z,15.27
2022-09-16T08:24:40.193Z,15.30
2022-09-16T08:25:42.545Z,15.33
2022-09-16T08:26:44.997Z,15.36
2022-09-16T08:27:47.527Z,15.41
2022-09-16T08:29:08.667Z,15.42
2022-09-16T08:29:53.979Z,15.46
2022-09-16T08:30:56.272Z,15.51
2022-09-16T08:32:00.536Z,15.56
2022-09-16T08:33:02.763Z,15.61
2022-09-16T08:34:05.194Z,15.66
2022-09-16T08:35:07.683Z,15.72
2022-09-16T08:36:10.098Z,15.76
2022-09-16T08:37:12.566Z,15.82
2022-09-16T08:38:16.633Z,15.87
2022-09-16T08:39:20.570Z,15.90
2022-09-16T08:40:24.518Z,15.94
2022-09-16T08:41:27.046Z,15.96
2022-09-16T08:42:30.933Z,15.97
2022-09-16T08:43:33.319Z,16.01
2022-09-16T08:45:38.267Z,16.04
2022-09-16T08:46:42.365Z,16.06
2022-09-16T08:47:44.670Z,16.08
2022-09-16T08:48:47.093Z,16.12
2022-09-16T08:49:49.579Z,16.13
2022-09-16T08:50:52.084Z,16.17
2022-09-16T08:51:54.614Z,16.21
2022-09-16T08:52:58.697Z,16.24
2022-09-16T08:54:00.971Z,16.27
2022-09-16T08:55:03.468Z,16.31
2022-09-16T08:56:05.938Z,16.36
2022-09-16T08:57:09.950Z,16.42
2022-09-16T08:58:12.384Z,16.49
2022-09-16T08:59:14.708Z,16.54
2022-09-16T09:00:17.257Z,16.58
2022-09-16T09:01:19.875Z,16.60
2022-09-16T09:02:24.227Z,16.65
2022-09-16T09:03:27.751Z,16.67
2022-09-16T09:04:31.722Z,16.65
2022-09-16T09:05:35.588Z,16.62
2022-09-16T09:08:45.992Z,16.59
2022-09-16T09:09:49.598Z,16.57
2022-09-16T09:10:52.120Z,16.53
2022-09-16T09:12:59.382Z,16.54
2022-09-16T09:14:00.870Z,16.53
2022-09-16T09:24:36.466Z,16.73
2022-09-16T09:25:38.985Z,16.82
2022-09-16T09:26:41.466Z,16.87
2022-09-16T09:27:43.947Z,16.94
2022-09-16T09:28:46.440Z,17.00
2022-09-16T09:29:50.697Z,17.09
2022-09-16T09:30:52.954Z,17.14
2022-09-16T09:31:55.474Z,17.21
2022-09-16T09:32:57.856Z,17.26
2022-09-16T09:34:00.354Z,17.30
2022-09-16T09:35:02.860Z,17.36
2022-09-16T09:36:05.306Z,17.37
2022-09-16T09:37:07.823Z,17.41
2022-09-16T09:38:10.330Z,17.42
2022-09-16T09:40:17.219Z,17.41
2022-09-16T09:41:20.675Z,17.42
2022-09-16T09:43:25.444Z,17.45
2022-09-16T09:44:27.924Z,17.47
2022-09-16T09:45:30.408Z,17.50
2022-09-16T09:46:32.929Z,17.56
2022-09-16T09:47:37.055Z,17.59
2022-09-16T09:48:39.410Z,17.64
2022-09-16T09:49:41.959Z,17.68
2022-09-16T09:50:46.473Z,17.72
2022-09-16T09:51:48.724Z,17.77
2022-09-16T09:52:51.218Z,17.78
2022-09-16T09:54:56.229Z,17.79
2022-09-16T09:56:00.349Z,17.77
2022-09-16T09:57:02.635Z,17.79
2022-09-16T09:58:05.194Z,17.80
2022-09-16T10:01:15.619Z,17.79
2022-09-16T10:02:18.247Z,17.77
2022-09-16T10:04:24.492Z,17.70
2022-09-16T10:05:26.850Z,17.66
2022-09-16T10:06:29.249Z,17.64
2022-09-16T10:07:33.370Z,17.62
2022-09-16T10:08:35.846Z,17.61
2022-09-16T10:09:39.846Z,17.56
2022-09-16T10:10:42.214Z,17.55
2022-09-16T10:11:44.664Z,17.53
2022-09-16T10:12:49.074Z,17.51
2022-09-16T10:13:51.349Z,17.45
2022-09-16T10:14:55.400Z,17.43
2022-09-16T10:15:59.380Z,17.41
2022-09-16T10:17:01.648Z,17.40
2022-09-16T10:18:05.726Z,17.38
2022-09-16T10:19:08.119Z,17.36
2022-09-16T10:20:10.689Z,17.35
2022-09-16T10:21:14.644Z,17.33
2022-09-16T10:22:16.979Z,17.26
2022-09-16T10:23:19.429Z,17.21
2022-09-16T10:24:21.898Z,17.18
2022-09-16T10:25:25.944Z,17.13
2022-09-16T10:26:28.325Z,17.08
2022-09-16T10:27:32.405Z,17.09
2022-09-16T10:28:34.683Z,17.03
2022-09-16T10:29:37.132Z,17.05
2022-09-16T10:30:41.200Z,17.02
2022-09-16T10:31:45.125Z,17.01
2022-09-16T10:32:47.383Z,17.02
2022-09-16T10:33:49.844Z,17.01
2022-09-16T10:35:54.699Z,17.00
2022-09-16T10:36:57.223Z,17.01
2022-09-16T10:38:01.325Z,17.03
2022-09-16T10:39:04.588Z,17.05
2022-09-16T10:41:10.280Z,17.06
2022-09-16T10:42:12.772Z,17.10
2022-09-16T10:44:17.835Z,17.13
2022-09-16T10:45:20.093Z,17.14
2022-09-16T10:47:24.971Z,17.16
2022-09-16T10:48:27.456Z,17.14
2022-09-16T10:49:29.928Z,17.10
2022-09-16T10:50:32.395Z,17.15
2022-09-16T10:51:34.887Z,17.16
2022-09-16T10:52:37.232Z,17.17
2022-09-16T10:54:43.704Z,17.20
2022-09-16T10:55:46.190Z,17.23
2022-09-16T10:56:48.694Z,17.25
2022-09-16T10:57:51.221Z,17.28
2022-09-16T10:58:53.769Z,17.29
2022-09-16T10:59:57.846Z,17.30
2022-09-16T11:01:00.374Z,17.33
2022-09-16T11:02:04.803Z,17.37
2022-09-16T11:03:06.887Z,17.38
2022-09-16T11:04:10.978Z,17.41
2022-09-16T11:05:13.174Z,17.43
2022-09-16T11:06:15.668Z,17.47
2022-09-16T11:07:19.861Z,17.46
2022-09-16T11:08:22.032Z,17.45
2022-09-16T11:10:27.004Z,17.44
2022-09-16T11:11:29.514Z,17.45
2022-09-16T11:12:31.911Z,17.44
2022-09-16T11:13:36.031Z,17.43
2022-09-16T11:14:38.363Z,17.42
2022-09-16T11:15:40.828Z,17.40
2022-09-16T11:16:43.290Z,17.37
2022-09-16T11:17:45.593Z,17.36
2022-09-16T11:18:49.407Z,17.31
2022-09-16T11:20:53.010Z,17.30
2022-09-16T11:21:55.497Z,17.32
2022-09-16T11:22:57.913Z,17.31
2022-09-16T11:24:02.107Z,17.32
2022-09-16T11:25:06.072Z,17.33
2022-09-16T11:26:08.445Z,17.35
2022-09-16T11:27:12.674Z,17.36
2022-09-16T11:28:14.978Z,17.39
2022-09-16T11:29:17.455Z,17.37
2022-09-16T11:30:21.529Z,17.34
2022-09-16T11:31:24.004Z,17.35
2022-09-16T11:32:26.372Z,17.36
2022-09-16T11:33:28.888Z,17.31
2022-09-16T11:34:31.373Z,17.32
2022-09-16T11:35:33.808Z,17.33
2022-09-16T11:36:36.302Z,17.35
2022-09-16T11:37:38.793Z,17.30
2022-09-16T11:38:45.442Z,17.29
2022-09-16T11:39:46.029Z,17.26
2022-09-16T11:40:48.534Z,17.25
2022-09-16T11:41:51.038Z,17.24
2022-09-16T11:42:53.495Z,17.20
2022-09-16T11:43:57.501Z,17.21
2022-09-16T11:46:02.360Z,17.22
2022-09-16T11:47:04.844Z,17.23
2022-09-16T11:48:07.338Z,17.20
2022-09-16T11:49:11.410Z,17.23
2022-09-16T11:50:13.707Z,17.24
2022-09-16T11:51:16.171Z,17.28
2022-09-16T11:52:20.257Z,17.32
2022-09-16T11:53:25.262Z,17.28
2022-09-16T11:54:26.682Z,17.31
2022-09-16T11:55:30.669Z,17.37
2022-09-16T11:56:32.929Z,17.39
2022-09-16T11:57:37.007Z,17.46
2022-09-16T11:58:39.371Z,17.53
2022-09-16T12:00:46.075Z,17.59
2022-09-16T12:10:16.908Z,17.57
2022-09-16T12:12:21.817Z,17.55
2022-09-16T12:13:24.231Z,17.54
2022-09-16T12:14:26.785Z,17.55
2022-09-16T12:15:29.526Z,17.53
2022-09-16T12:16:32.538Z,17.48
2022-09-16T12:17:36.320Z,17.45
2022-09-16T12:18:38.601Z,17.42
2022-09-16T12:20:43.485Z,17.36
2022-09-16T12:21:45.953Z,17.31
2022-09-16T12:22:50.078Z,17.24
2022-09-16T12:23:54.106Z,17.21
2022-09-16T12:24:56.497Z,17.17
2022-09-16T12:26:00.522Z,17.13
2022-09-16T12:27:02.938Z,17.04
2022-09-16T12:28:05.391Z,16.99
2022-09-16T12:29:07.866Z,16.94
2022-09-16T12:30:10.450Z,16.89
2022-09-16T12:31:12.993Z,16.83
2022-09-16T12:32:15.381Z,16.82
2022-09-16T12:33:17.850Z,16.80
2022-09-16T12:34:20.341Z,16.83
2022-09-16T12:35:24.343Z,16.87
2022-09-16T12:36:26.753Z,16.91
2022-09-16T12:37:30.825Z,16.94
2022-09-16T12:38:34.827Z,17.02
2022-09-16T12:40:39.606Z,17.04
2022-09-16T12:41:42.086Z,17.03
2022-09-16T12:42:46.573Z,17.06
2022-09-16T12:43:48.633Z,17.04
2022-09-16T12:44:51.195Z,17.03
2022-09-16T12:45:53.688Z,17.05
2022-09-16T12:48:00.052Z,17.00
2022-09-16T12:49:02.489Z,17.01
2022-09-16T12:50:05.076Z,16.98
2022-09-16T12:59:37.215Z,16.54
2022-09-16T13:00:39.812Z,16.51
2022-09-16T13:01:42.376Z,16.54
2022-09-16T13:02:44.736Z,16.53
2022-09-16T13:03:47.187Z,16.54
2022-09-16T13:04:50.683Z,16.53
2022-09-16T13:06:55.531Z,16.50
2022-09-16T13:07:59.543Z,16.44
2022-09-16T13:09:01.846Z,16.35
2022-09-16T13:10:04.345Z,16.27
2022-09-16T13:11:51.371Z,16.26
2022-09-16T13:12:38.009Z,16.18
2022-09-16T13:13:11.699Z,16.12
2022-09-16T13:14:15.733Z,16.09
2022-09-16T13:15:19.703Z,16.03
2022-09-16T13:16:23.578Z,15.97
2022-09-16T13:17:25.884Z,15.93
2022-09-16T13:18:28.335Z,15.89
2022-09-16T13:19:32.385Z,15.82
2022-09-16T13:21:38.707Z,15.77
2022-09-16T13:22:41.324Z,15.74
2022-09-16T13:23:43.791Z,15.70
2022-09-16T13:24:46.379Z,15.67
2022-09-16T13:25:50.521Z,15.74
2022-09-16T13:26:54.406Z,15.76
2022-09-16T13:27:58.379Z,15.87
2022-09-16T13:29:00.804Z,15.95
2022-09-16T13:30:03.357Z,16.05
2022-09-16T13:31:06.045Z,16.08
2022-09-16T13:32:10.252Z,16.21
2022-09-16T13:33:12.671Z,16.40
2022-09-16T13:34:15.154Z,16.48
2022-09-16T13:35:17.627Z,16.63
2022-09-16T13:36:20.167Z,16.74
2022-09-16T13:37:24.218Z,16.84
2022-09-16T13:38:26.558Z,16.89
2022-09-16T13:39:29.082Z,16.98
2022-09-16T13:40:31.655Z,17.07
2022-09-16T13:41:33.982Z,17.17
2022-09-16T13:42:36.430Z,17.23
2022-09-16T13:43:38.943Z,17.28
2022-09-16T13:44:41.387Z,17.34
2022-09-16T13:45:44.005Z,17.39
2022-09-16T13:46:46.563Z,17.45
2022-09-16T13:47:49.162Z,17.48
2022-09-16T13:49:22.820Z,17.69
2022-09-16T13:49:57.156Z,17.71
2022-09-16T13:50:59.509Z,17.86
2022-09-16T13:52:01.948Z,17.89
2022-09-16T13:56:11.775Z,17.83
2022-09-16T13:57:14.294Z,17.72
2022-09-16T13:58:18.306Z,17.62
2022-09-16T13:59:22.215Z,17.57
2022-09-16T14:00:24.596Z,17.50
2022-09-16T14:01:32.305Z,17.43
2022-09-16T14:02:29.466Z,17.32
2022-09-16T14:03:31.995Z,17.23
2022-09-16T14:04:34.425Z,17.17
2022-09-16T14:05:38.435Z,17.08
2022-09-16T14:06:42.496Z,16.99
2022-09-16T14:07:44.752Z,16.91
2022-09-16T14:08:47.207Z,16.84
2022-09-16T14:09:54.753Z,16.75
2022-09-16T14:10:53.651Z,16.71
2022-09-16T14:11:56.092Z,16.66
2022-09-16T14:12:58.584Z,16.62
2022-09-16T14:14:05.670Z,16.58
2022-09-16T14:15:03.624Z,16.55
2022-09-16T14:16:06.097Z,16.52
2022-09-16T14:17:08.538Z,16.47
2022-09-16T14:18:10.982Z,16.40
2022-09-16T14:19:13.514Z,16.35
2022-09-16T14:20:15.864Z,16.28
2022-09-16T14:21:18.385Z,16.23
2022-09-16T14:22:22.502Z,16.17
2022-09-16T14:23:24.832Z,16.15
2022-09-16T14:24:27.333Z,16.08
2022-09-16T14:25:30.173Z,16.06
2022-09-16T14:26:33.903Z,16.04
2022-09-16T14:28:38.927Z,16.02
2022-09-16T14:29:41.327Z,16.03
2022-09-16T14:30:43.825Z,16.02
2022-09-16T14:31:47.982Z,16.01
2022-09-16T14:33:55.794Z,16.03
2022-09-16T14:34:56.529Z,16.05
2022-09-16T14:35:59.036Z,16.10
2022-09-16T14:37:03.048Z,16.12
2022-09-16T14:38:14.250Z,16.17
2022-09-16T14:39:09.599Z,16.18
2022-09-16T14:40:11.915Z,16.22
2022-09-16T14:41:14.310Z,16.29
2022-09-16T14:42:16.772Z,16.41
2022-09-16T14:43:19.227Z,16.46
2022-09-16T14:46:12.756Z,16.61
2022-09-16T14:46:28.286Z,16.57
2022-09-16T14:47:49.957Z,16.60
2022-09-16T14:48:34.800Z,16.57
2022-09-16T14:49:37.147Z,16.54
2022-09-16T14:51:42.044Z,16.55
2022-09-16T14:52:44.582Z,16.54
2022-09-16T14:54:01.903Z,16.51
2022-09-16T14:54:49.438Z,16.53
2022-09-16T14:56:55.844Z,16.50
2022-09-16T14:59:02.337Z,16.47
2022-09-16T15:01:08.859Z,16.45
2022-09-16T15:03:12.077Z,16.44
2022-09-16T15:04:16.140Z,16.46
2022-09-16T15:05:18.502Z,16.48
2022-09-16T15:06:20.984Z,16.53
2022-09-16T15:07:25.008Z,16.51
2022-09-16T15:08:27.340Z,16.46
2022-09-16T15:09:29.811Z,16.45
2022-09-16T15:10:44.579Z,16.47
2022-09-16T15:11:47.379Z,16.45
2022-09-16T15:12:40.208Z,16.42
2022-09-16T15:13:42.536Z,16.41
2022-09-16T15:14:44.959Z,16.40
2022-09-16T15:15:49.068Z,16.41
2022-09-16T15:16:51.341Z,16.42
2022-09-16T15:18:56.206Z,16.38
2022-09-16T15:19:58.702Z,16.32
2022-09-16T15:21:01.163Z,16.28
2022-09-16T15:22:03.640Z,16.21
2022-09-16T15:23:08.627Z,16.09
2022-09-16T15:24:08.532Z,15.96
2022-09-16T15:25:12.510Z,15.79
2022-09-16T15:26:14.841Z,15.68
2022-09-16T15:27:17.265Z,15.62
2022-09-16T15:28:19.701Z,15.51
2022-09-16T15:29:23.699Z,15.46
2022-09-16T15:30:27.774Z,15.37
2022-09-16T15:31:30.260Z,15.26
2022-09-16T15:32:32.570Z,15.22
2022-09-16T15:33:36.604Z,15.18
2022-09-16T15:34:40.619Z,15.10
2022-09-16T15:35:42.962Z,15.05
2022-09-16T15:36:45.347Z,15.00
2022-09-16T15:37:47.915Z,14.94
2022-09-16T15:38:50.265Z,14.85
2022-09-16T15:39:54.328Z,14.81
2022-09-16T15:40:56.620Z,14.71
2022-09-16T15:42:00.663Z,14.64
2022-09-16T15:43:04.533Z,14.57
2022-09-16T15:44:07.171Z,14.54
2022-09-16T15:45:09.279Z,14.46
2022-09-16T15:46:13.470Z,14.40
2022-09-16T15:47:17.301Z,14.36
2022-09-16T15:48:19.590Z,14.32
2022-09-16T15:49:23.578Z,14.29
2022-09-16T15:50:27.632Z,14.24
2022-09-16T15:51:29.988Z,14.17
2022-09-16T15:52:34.314Z,14.10
2022-09-16T15:53:36.617Z,14.07
2022-09-16T15:54:40.731Z,14.01
2022-09-16T15:55:42.995Z,14.00
2022-09-16T15:56:45.457Z,13.99
2022-09-16T15:57:10.635Z,13.84
2022-09-16T16:04:05.748Z,13.82
2022-09-16T16:05:08.097Z,13.78
2022-09-16T16:07:15.991Z,13.74
2022-09-16T16:08:18.317Z,13.71
2022-09-16T16:10:23.237Z,13.67
2022-09-16T16:11:23.083Z,13.5
2022-09-16T16:25:37.968Z,13.69
2022-09-16T16:39:49.329Z,13.13
2022-09-16T16:54:00.185Z,12.38
2022-09-16T17:08:11.201Z,11.78
2022-09-16T17:22:24.130Z,11.59
2022-09-16T17:36:34.341Z,11.25
2022-09-16T17:50:43.510Z,10.89
2022-09-16T18:04:56.985Z,10.51
2022-09-16T18:19:05.659Z,10.39
2022-09-16T18:33:16.877Z,10.15
2022-09-16T18:47:30.064Z,10.05
2022-09-16T19:01:42.743Z,9.88
2022-09-16T19:15:53.999Z,9.61
2022-09-16T19:30:06.776Z,9.43
2022-09-16T19:44:20.137Z,9.5
2022-09-16T19:58:34.353Z,9.49
2022-09-16T20:12:46.297Z,9.22
2022-09-16T20:26:57.864Z,8.89
2022-09-16T20:41:10.091Z,8.86
2022-09-16T20:55:22.048Z,8.78
2022-09-16T21:09:34.199Z,8.68
2022-09-16T21:23:46.432Z,8.72
2022-09-16T21:37:58.547Z,8.71
2022-09-16T21:52:11.325Z,8.58
2022-09-16T22:06:25.207Z,8.37
2022-09-16T22:20:35.244Z,8.3
2022-09-16T22:34:43.864Z,8.27
2022-09-16T22:48:56.437Z,8.18
2022-09-16T23:03:07.866Z,8.09
2022-09-16T23:17:20.707Z,7.94
2022-09-16T23:31:32.862Z,7.76
2022-09-16T23:45:44.511Z,7.72
2022-09-16T23:59:59.186Z,7.82
